Aviation Digital Data Service (ADDS)

Output produced by METARs form (2244 UTC 26 February 2020)
found at http://www.aviationweather.gov/metar/data/
 
EGPH 262220Z 24011KT 9999 -RA FEW011 BKN048 02/01 Q0997
EGPH 262150Z 23009KT CAVOK 02/01 Q0997
TAF EGPH 261659Z 2618/2718 25009KT 9999 FEW020 
     PROB30 
     TEMPO 2618/2624 26015G25KT 6000 SHRASN BKN012 
     TEMPO 2700/2715 6000 SHRA SHRASN BKN012 
     PROB30 
     TEMPO 2700/2706 25015G25KT 1200 SHSN BKN004 
     PROB40 
     TEMPO 2712/2718 27018G28KT